createdAt,value
2018-03-11T00:00:38.134Z,19.80
2018-03-11T00:01:43.231Z,19.80
2018-03-11T00:02:48.019Z,19.80
2018-03-11T00:03:53.028Z,19.80
2018-03-11T00:04:59.065Z,19.80
2018-03-11T00:06:04.092Z,19.80
2018-03-11T00:07:09.619Z,19.80
2018-03-11T00:08:14.696Z,19.80
2018-03-11T00:09:19.717Z,19.80
2018-03-11T00:10:24.605Z,19.80
2018-03-11T00:11:29.672Z,19.80
2018-03-11T00:12:34.737Z,19.80
2018-03-11T00:13:39.682Z,19.80
2018-03-11T00:14:44.657Z,19.80
2018-03-11T00:15:49.604Z,19.80
2018-03-11T00:16:55.755Z,19.80
2018-03-11T00:18:00.736Z,19.80
2018-03-11T00:19:05.852Z,19.80
2018-03-11T00:20:10.802Z,19.80
2018-03-11T00:21:15.814Z,19.80
2018-03-11T00:22:20.922Z,19.80
2018-03-11T00:23:26.016Z,19.80
2018-03-11T00:24:31.174Z,19.80
2018-03-11T00:25:36.288Z,19.80
2018-03-11T00:26:41.259Z,19.80
2018-03-11T00:27:46.390Z,19.80
2018-03-11T00:28:51.582Z,19.80
2018-03-11T00:29:56.707Z,19.80
2018-03-11T00:31:01.842Z,19.80
2018-03-11T00:32:06.980Z,19.80
2018-03-11T00:33:12.067Z,19.80
2018-03-11T00:34:17.476Z,19.80
2018-03-11T00:35:22.667Z,19.80
2018-03-11T00:36:27.610Z,19.80
2018-03-11T00:37:32.766Z,19.80
2018-03-11T00:38:37.823Z,19.80
2018-03-11T00:39:42.832Z,19.80
2018-03-11T00:40:48.029Z,19.80
2018-03-11T00:41:53.447Z,19.80
2018-03-11T00:42:59.474Z,19.80
2018-03-11T00:44:04.374Z,19.80
2018-03-11T00:45:09.406Z,19.80
2018-03-11T00:46:14.532Z,19.80
2018-03-11T00:47:19.388Z,19.80
2018-03-11T00:48:24.296Z,19.80
2018-03-11T00:49:29.290Z,19.80
2018-03-11T00:50:34.356Z,19.80
2018-03-11T00:51:39.359Z,19.80
2018-03-11T00:52:44.484Z,19.80
2018-03-11T00:53:49.553Z,19.80
2018-03-11T00:54:54.565Z,19.80
2018-03-11T00:55:59.445Z,19.80
2018-03-11T00:57:04.509Z,19.80
2018-03-11T00:58:09.424Z,19.80
2018-03-11T00:59:14.362Z,19.80
2018-03-11T01:00:19.252Z,19.80
2018-03-11T01:01:24.154Z,19.80
2018-03-11T01:02:30.148Z,19.80
2018-03-11T01:03:35.448Z,19.80
2018-03-11T01:04:40.506Z,19.80
2018-03-11T01:05:45.578Z,19.80
2018-03-11T01:06:50.626Z,19.80
2018-03-11T01:07:55.708Z,19.90
2018-03-11T01:09:00.806Z,19.80
2018-03-11T01:10:05.756Z,19.80
2018-03-11T01:11:11.340Z,19.80
2018-03-11T01:12:16.451Z,19.80
2018-03-11T01:13:21.566Z,19.80
2018-03-11T01:14:26.713Z,19.80
2018-03-11T01:15:31.797Z,19.80
2018-03-11T01:16:36.666Z,19.80
2018-03-11T01:17:41.967Z,19.80
2018-03-11T01:18:47.082Z,19.80
2018-03-11T01:19:51.987Z,19.80
2018-03-11T01:20:56.840Z,19.80
2018-03-11T01:22:01.981Z,19.80
2018-03-11T01:23:07.102Z,19.80
2018-03-11T01:24:12.086Z,19.80
2018-03-11T01:25:17.016Z,19.80
2018-03-11T01:26:22.030Z,19.80
2018-03-11T01:27:26.992Z,19.80
2018-03-11T01:28:32.124Z,19.80
2018-03-11T01:29:37.109Z,19.80
2018-03-11T01:30:42.258Z,19.80
2018-03-11T01:31:47.275Z,19.80
2018-03-11T01:32:52.360Z,19.80
2018-03-11T01:33:57.263Z,19.80
2018-03-11T01:35:02.200Z,19.80
2018-03-11T01:36:07.256Z,19.80
2018-03-11T01:37:12.119Z,19.80
2018-03-11T01:38:17.741Z,19.80
2018-03-11T01:39:23.831Z,19.80
2018-03-11T01:40:28.636Z,19.80
2018-03-11T01:41:33.684Z,19.80
2018-03-11T01:42:38.540Z,19.80
2018-03-11T01:43:43.417Z,19.80
2018-03-11T01:44:48.542Z,19.80
2018-03-11T01:45:53.562Z,19.80
2018-03-11T01:46:59.183Z,19.80
2018-03-11T01:48:04.390Z,19.80
2018-03-11T01:49:09.362Z,19.80
2018-03-11T01:50:14.463Z,19.80
2018-03-11T01:51:19.328Z,19.80
2018-03-11T01:52:25.378Z,19.80
2018-03-11T01:53:30.489Z,19.80
2018-03-11T01:54:35.575Z,19.80
2018-03-11T01:55:41.422Z,19.80
2018-03-11T01:56:46.825Z,19.70
2018-03-11T01:57:51.646Z,19.80
2018-03-11T01:58:56.661Z,19.80
2018-03-11T02:00:01.793Z,19.80
2018-03-11T02:01:06.874Z,19.80
2018-03-11T02:02:11.980Z,19.80
2018-03-11T02:03:16.785Z,19.80
2018-03-11T02:04:21.846Z,19.80
2018-03-11T02:05:26.976Z,19.80
2018-03-11T02:06:31.839Z,19.80
2018-03-11T02:07:36.877Z,19.80
2018-03-11T02:08:42.181Z,19.80
2018-03-11T02:09:47.586Z,19.80
2018-03-11T02:10:52.459Z,19.80
2018-03-11T02:11:57.360Z,19.80
2018-03-11T02:13:02.216Z,19.80
2018-03-11T02:14:07.278Z,19.80
2018-03-11T02:15:12.361Z,19.80
2018-03-11T02:16:18.559Z,19.80
2018-03-11T02:17:23.436Z,19.80
2018-03-11T02:18:28.455Z,19.80
2018-03-11T02:19:33.328Z,19.80
2018-03-11T02:20:38.194Z,19.80
2018-03-11T02:21:43.121Z,19.80
2018-03-11T02:22:48.157Z,19.80
2018-03-11T02:23:53.893Z,19.80
2018-03-11T02:24:58.697Z,19.80
2018-03-11T02:26:03.529Z,19.80
2018-03-11T02:27:08.601Z,19.80
2018-03-11T02:28:13.521Z,19.80
2018-03-11T02:29:18.454Z,19.70
2018-03-11T02:30:23.571Z,19.80
2018-03-11T02:31:28.483Z,19.80
2018-03-11T02:32:33.463Z,19.80
2018-03-11T02:33:38.331Z,19.80
2018-03-11T02:34:43.415Z,19.80
2018-03-11T02:35:48.385Z,19.80
2018-03-11T02:36:53.515Z,19.80
2018-03-11T02:37:59.541Z,19.80
2018-03-11T02:39:04.704Z,19.80
2018-03-11T02:41:26.484Z,19.80
2018-03-11T02:42:31.594Z,19.80
2018-03-11T02:43:37.192Z,19.80
2018-03-11T02:44:42.288Z,19.80
2018-03-11T02:45:47.374Z,19.80
2018-03-11T02:46:52.386Z,19.80
2018-03-11T02:47:57.502Z,19.80
2018-03-11T02:49:02.562Z,19.80
2018-03-11T02:50:07.592Z,19.80
2018-03-11T02:51:12.754Z,19.80
2018-03-11T02:52:18.101Z,19.80
2018-03-11T02:53:23.199Z,19.80
2018-03-11T02:54:28.399Z,19.80
2018-03-11T02:55:33.406Z,19.80
2018-03-11T02:56:38.472Z,19.90
2018-03-11T02:57:43.511Z,19.80
2018-03-11T02:58:48.542Z,19.80
2018-03-11T02:59:53.634Z,19.80
2018-03-11T03:00:58.688Z,19.80
2018-03-11T03:02:03.649Z,19.80
2018-03-11T03:03:08.564Z,19.80
2018-03-11T03:04:13.467Z,19.80
2018-03-11T03:05:18.498Z,19.80
2018-03-11T03:06:23.391Z,19.80
2018-03-11T03:07:28.195Z,19.80
2018-03-11T03:08:34.926Z,19.80
2018-03-11T03:09:39.772Z,19.80
2018-03-11T03:10:44.670Z,19.80
2018-03-11T03:11:49.750Z,19.80
2018-03-11T03:12:54.853Z,19.80
2018-03-11T03:13:59.791Z,19.80
2018-03-11T03:15:04.844Z,19.80
2018-03-11T03:16:09.832Z,19.80
2018-03-11T03:17:14.825Z,19.80
2018-03-11T03:18:19.831Z,19.90
2018-03-11T03:19:24.767Z,19.80
2018-03-11T03:20:29.708Z,19.80
2018-03-11T03:21:34.740Z,19.80
2018-03-11T03:22:39.739Z,19.80
2018-03-11T03:23:44.749Z,19.80
2018-03-11T03:24:49.803Z,19.80
2018-03-11T03:25:55.486Z,19.80
2018-03-11T03:27:00.483Z,19.90
2018-03-11T03:28:05.542Z,19.80
2018-03-11T03:29:10.642Z,19.80
2018-03-11T03:30:15.577Z,19.80
2018-03-11T03:31:20.711Z,19.80
2018-03-11T03:32:25.723Z,19.80
2018-03-11T03:33:30.692Z,19.80
2018-03-11T03:34:35.612Z,19.80
2018-03-11T03:35:41.380Z,19.80
2018-03-11T03:36:46.458Z,19.80
2018-03-11T03:37:51.551Z,19.80
2018-03-11T03:38:56.633Z,19.80
2018-03-11T03:40:01.700Z,19.80
2018-03-11T03:41:06.742Z,19.80
2018-03-11T03:42:11.714Z,19.80
2018-03-11T03:43:16.721Z,19.80
2018-03-11T03:44:21.799Z,19.80
2018-03-11T03:45:26.775Z,19.80
2018-03-11T03:46:31.810Z,19.90
2018-03-11T03:47:36.859Z,19.80
2018-03-11T03:48:42.449Z,19.80
2018-03-11T03:49:47.457Z,19.80
2018-03-11T03:50:52.455Z,19.80
2018-03-11T03:51:57.517Z,19.80
2018-03-11T03:53:02.439Z,19.80
2018-03-11T03:54:07.453Z,19.80
2018-03-11T03:55:13.969Z,19.80
2018-03-11T03:56:18.949Z,19.80
2018-03-11T03:57:23.873Z,19.80
2018-03-11T03:58:28.873Z,19.80
2018-03-11T03:59:34.187Z,19.80
2018-03-11T04:00:39.228Z,19.80
2018-03-11T04:01:44.315Z,19.80
2018-03-11T04:02:49.363Z,19.80
2018-03-11T04:03:54.405Z,19.80
2018-03-11T04:04:59.422Z,19.80
2018-03-11T04:06:04.466Z,19.90
2018-03-11T04:07:09.482Z,19.80
2018-03-11T04:08:14.360Z,19.80
2018-03-11T04:09:19.230Z,19.80
2018-03-11T04:10:24.189Z,19.90
2018-03-11T04:11:29.280Z,19.80
2018-03-11T04:12:34.609Z,19.80
2018-03-11T04:13:39.584Z,19.80
2018-03-11T04:14:44.593Z,19.80
2018-03-11T04:15:49.550Z,19.90
2018-03-11T04:16:54.592Z,19.90
2018-03-11T04:17:59.582Z,19.80
2018-03-11T04:19:04.418Z,19.90
2018-03-11T04:20:09.274Z,19.80
2018-03-11T04:21:14.226Z,19.80
2018-03-11T04:22:19.145Z,19.90
2018-03-11T04:23:24.136Z,19.90
2018-03-11T04:24:29.197Z,19.80
2018-03-11T04:25:34.325Z,19.80
2018-03-11T04:26:39.321Z,19.80
2018-03-11T04:27:44.350Z,19.90
2018-03-11T04:28:49.247Z,19.80
2018-03-11T04:29:54.205Z,19.90
2018-03-11T04:30:59.116Z,19.90
2018-03-11T04:32:04.072Z,19.80
2018-03-11T04:33:09.054Z,19.80
2018-03-11T04:34:14.067Z,19.80
2018-03-11T04:35:19.082Z,19.90
2018-03-11T04:36:24.123Z,19.90
2018-03-11T04:37:29.378Z,19.90
2018-03-11T04:38:34.390Z,19.90
2018-03-11T04:39:39.308Z,19.90
2018-03-11T04:40:44.208Z,19.80
2018-03-11T04:41:49.238Z,19.80
2018-03-11T04:42:54.302Z,19.80
2018-03-11T04:43:59.243Z,19.80
2018-03-11T04:45:04.221Z,19.80
2018-03-11T04:46:09.313Z,19.80
2018-03-11T04:47:14.439Z,19.90
2018-03-11T04:48:19.432Z,19.80
2018-03-11T04:49:24.392Z,19.90
2018-03-11T04:50:29.353Z,19.90
2018-03-11T04:51:34.484Z,19.90
2018-03-11T04:52:39.403Z,19.80
2018-03-11T04:53:44.353Z,19.90
2018-03-11T04:54:49.449Z,19.80
2018-03-11T04:55:54.470Z,19.90
2018-03-11T04:56:59.382Z,19.90
2018-03-11T04:58:04.421Z,19.90
2018-03-11T04:59:09.416Z,19.90
2018-03-11T05:00:14.454Z,19.90
2018-03-11T05:01:19.548Z,19.90
2018-03-11T05:02:24.697Z,19.90
2018-03-11T05:03:29.671Z,19.90
2018-03-11T05:04:34.690Z,19.90
2018-03-11T05:05:39.830Z,19.90
2018-03-11T05:06:44.801Z,19.90
2018-03-11T05:07:49.742Z,19.90
2018-03-11T05:08:54.786Z,19.80
2018-03-11T05:09:59.808Z,19.90
2018-03-11T05:11:04.914Z,19.90
2018-03-11T05:12:09.945Z,19.90
2018-03-11T05:13:14.999Z,19.90
2018-03-11T05:14:20.109Z,19.80
2018-03-11T05:15:25.001Z,19.80
2018-03-11T05:16:30.057Z,19.90
2018-03-11T05:17:35.151Z,19.90
2018-03-11T05:18:40.122Z,19.80
2018-03-11T05:19:45.138Z,19.80
2018-03-11T05:20:50.103Z,19.80
2018-03-11T05:21:55.178Z,19.80
2018-03-11T05:23:00.261Z,19.80
2018-03-11T05:24:05.250Z,19.80
2018-03-11T05:25:10.304Z,19.90
2018-03-11T05:26:15.234Z,19.90
2018-03-11T05:27:20.468Z,19.80
2018-03-11T05:28:25.584Z,19.80
2018-03-11T05:29:30.543Z,19.90
2018-03-11T05:30:35.603Z,19.90
2018-03-11T05:31:40.712Z,19.80
2018-03-11T05:32:45.667Z,19.90
2018-03-11T05:33:50.695Z,19.80
2018-03-11T05:34:55.835Z,19.90
2018-03-11T05:36:00.918Z,19.90
2018-03-11T05:37:05.941Z,19.90
2018-03-11T05:38:11.036Z,19.90
2018-03-11T05:39:16.198Z,19.80
2018-03-11T05:40:21.398Z,19.90
2018-03-11T05:41:26.623Z,19.90
2018-03-11T05:42:31.823Z,19.90
2018-03-11T05:43:37.019Z,19.90
2018-03-11T05:44:42.113Z,19.90
2018-03-11T05:45:47.339Z,19.90
2018-03-11T05:46:52.375Z,19.90
2018-03-11T05:47:57.539Z,19.90
2018-03-11T05:49:02.544Z,19.90
2018-03-11T05:50:08.558Z,19.90
2018-03-11T05:51:13.582Z,19.90
2018-03-11T05:52:18.637Z,19.90
2018-03-11T05:53:23.723Z,19.90
2018-03-11T05:54:28.818Z,19.90
2018-03-11T05:55:33.973Z,19.90
2018-03-11T05:56:38.970Z,19.90
2018-03-11T05:57:44.052Z,19.90
2018-03-11T05:58:49.173Z,19.80
2018-03-11T05:59:54.277Z,19.90
2018-03-11T06:00:59.357Z,19.90
2018-03-11T06:02:04.512Z,19.90
2018-03-11T06:03:09.535Z,19.90
2018-03-11T06:04:15.359Z,19.90
2018-03-11T06:05:20.306Z,19.90
2018-03-11T06:06:25.448Z,19.90
2018-03-11T06:07:30.452Z,19.90
2018-03-11T06:08:35.416Z,19.90
2018-03-11T06:09:40.399Z,19.90
2018-03-11T06:10:45.408Z,19.90
2018-03-11T06:11:50.584Z,19.90
2018-03-11T06:12:56.416Z,19.90
2018-03-11T06:14:01.351Z,19.90
2018-03-11T06:15:06.329Z,19.90
2018-03-11T06:16:11.893Z,19.90
2018-03-11T06:17:16.874Z,19.90
2018-03-11T06:18:22.946Z,19.90
2018-03-11T06:19:28.061Z,19.90
2018-03-11T06:20:34.138Z,19.80
2018-03-11T06:21:39.699Z,19.90
2018-03-11T06:22:44.861Z,19.90
2018-03-11T06:23:49.838Z,19.90
2018-03-11T06:24:54.845Z,19.90
2018-03-11T06:25:59.992Z,19.90
2018-03-11T06:27:04.946Z,19.90
2018-03-11T06:28:10.025Z,19.90
2018-03-11T06:29:15.168Z,19.90
2018-03-11T06:30:20.139Z,19.90
2018-03-11T06:31:25.227Z,19.90
2018-03-11T06:32:30.811Z,19.90
2018-03-11T06:33:35.745Z,19.90
2018-03-11T06:34:40.826Z,19.90
2018-03-11T06:35:45.860Z,19.90
2018-03-11T06:36:50.854Z,19.90
2018-03-11T06:37:55.860Z,19.90
2018-03-11T06:39:00.871Z,19.90
2018-03-11T06:40:05.882Z,19.90
2018-03-11T06:41:10.886Z,19.90
2018-03-11T06:42:15.901Z,19.90
2018-03-11T06:43:20.885Z,19.90
2018-03-11T06:44:26.010Z,19.90
2018-03-11T06:45:31.084Z,19.80
2018-03-11T06:46:36.215Z,19.80
2018-03-11T06:47:41.640Z,19.70
2018-03-11T06:48:48.249Z,19.70
2018-03-11T06:49:53.933Z,19.70
2018-03-11T06:50:58.932Z,19.70
2018-03-11T06:52:04.053Z,19.60
2018-03-11T06:53:09.726Z,19.60
2018-03-11T06:54:14.925Z,19.60
2018-03-11T06:55:19.990Z,19.60
2018-03-11T06:56:25.080Z,19.60
2018-03-11T06:57:30.230Z,19.50
2018-03-11T06:58:35.228Z,19.50
2018-03-11T06:59:40.413Z,19.50
2018-03-11T07:00:45.492Z,19.50
2018-03-11T07:01:50.729Z,19.50
2018-03-11T07:02:55.874Z,19.50
2018-03-11T07:04:01.003Z,19.50
2018-03-11T07:05:06.150Z,19.50
2018-03-11T07:06:11.242Z,19.50
2018-03-11T07:07:17.332Z,19.50
2018-03-11T07:08:22.621Z,19.50
2018-03-11T07:09:27.638Z,19.50
2018-03-11T07:10:33.013Z,19.50
2018-03-11T07:11:37.965Z,19.60
2018-03-11T07:12:43.005Z,19.50
2018-03-11T07:13:48.007Z,19.60
2018-03-11T07:14:53.056Z,19.50
2018-03-11T07:15:58.267Z,19.50
2018-03-11T07:17:03.525Z,19.50
2018-03-11T07:18:08.550Z,19.50
2018-03-11T07:19:13.657Z,19.50
2018-03-11T07:20:18.721Z,19.50
2018-03-11T07:21:23.810Z,19.50
2018-03-11T07:22:29.574Z,19.40
2018-03-11T07:23:34.667Z,19.50
2018-03-11T07:24:39.702Z,19.50
2018-03-11T07:25:44.764Z,19.40
2018-03-11T07:26:49.954Z,19.50
2018-03-11T07:27:55.116Z,19.40
2018-03-11T07:29:00.248Z,19.40
2018-03-11T07:30:05.405Z,19.40
2018-03-11T07:31:10.401Z,19.40
2018-03-11T07:32:15.652Z,19.40
2018-03-11T07:33:20.713Z,19.40
2018-03-11T07:34:25.727Z,19.50
2018-03-11T07:35:30.862Z,19.40
2018-03-11T07:36:36.022Z,19.40
2018-03-11T07:37:41.116Z,19.50
2018-03-11T07:38:46.174Z,19.40
2018-03-11T07:39:51.156Z,19.40
2018-03-11T07:40:56.213Z,19.40
2018-03-11T07:42:01.235Z,19.40
2018-03-11T07:43:06.256Z,19.40
2018-03-11T07:44:11.275Z,19.40
2018-03-11T07:45:16.426Z,19.40
2018-03-11T07:46:22.233Z,19.40
2018-03-11T07:47:28.203Z,19.40
2018-03-11T07:48:34.249Z,19.50
2018-03-11T07:49:40.083Z,19.40
2018-03-11T07:50:45.187Z,19.40
2018-03-11T07:51:50.254Z,19.40
2018-03-11T07:52:55.214Z,19.40
2018-03-11T07:54:00.196Z,19.40
2018-03-11T07:55:05.098Z,19.40
2018-03-11T07:56:10.800Z,19.40
2018-03-11T07:57:15.843Z,19.40
2018-03-11T07:58:20.751Z,19.40
2018-03-11T07:59:25.625Z,19.40
2018-03-11T08:00:31.019Z,19.40
2018-03-11T08:01:35.971Z,19.40
2018-03-11T08:02:41.586Z,19.40
2018-03-11T08:03:46.408Z,19.40
2018-03-11T08:04:52.214Z,19.40
2018-03-11T08:05:57.215Z,19.40
2018-03-11T08:07:02.224Z,19.40
2018-03-11T08:08:07.187Z,19.40
2018-03-11T08:09:12.210Z,19.40
2018-03-11T08:10:17.172Z,19.40
2018-03-11T08:11:22.184Z,19.40
2018-03-11T08:12:27.226Z,19.40
2018-03-11T08:13:32.233Z,19.40
2018-03-11T08:14:37.317Z,19.40
2018-03-11T08:15:42.395Z,19.40
2018-03-11T08:16:47.394Z,19.40
2018-03-11T08:17:53.623Z,19.40
2018-03-11T08:18:58.726Z,19.40
2018-03-11T08:20:03.738Z,19.40
2018-03-11T08:21:08.817Z,19.40
2018-03-11T08:22:14.256Z,19.40
2018-03-11T08:23:19.243Z,19.30
2018-03-11T08:24:24.210Z,19.40
2018-03-11T08:25:29.255Z,19.30
2018-03-11T08:26:34.290Z,19.40
2018-03-11T08:27:39.428Z,19.40
2018-03-11T08:28:44.539Z,19.40
2018-03-11T08:29:49.508Z,19.40
2018-03-11T08:30:54.499Z,19.40
2018-03-11T08:31:59.505Z,19.40
2018-03-11T08:33:04.467Z,19.40
2018-03-11T08:34:09.527Z,19.40
2018-03-11T08:35:14.516Z,19.40
2018-03-11T08:36:19.582Z,19.40
2018-03-11T08:37:24.506Z,19.40
2018-03-11T08:38:29.529Z,19.40
2018-03-11T08:39:34.442Z,19.40
2018-03-11T08:40:39.554Z,19.40
2018-03-11T08:41:44.779Z,19.40
2018-03-11T08:42:49.763Z,19.40
2018-03-11T08:43:54.782Z,19.40
2018-03-11T08:45:00.001Z,19.40
2018-03-11T08:46:05.180Z,19.40
2018-03-11T08:47:10.413Z,19.40
2018-03-11T08:48:15.560Z,19.40
2018-03-11T08:49:20.690Z,19.40
2018-03-11T08:50:25.837Z,19.40
2018-03-11T08:51:30.883Z,19.40
2018-03-11T08:52:35.941Z,19.40
2018-03-11T08:53:40.930Z,19.40
2018-03-11T08:54:46.357Z,19.40
2018-03-11T08:55:51.420Z,19.40
2018-03-11T08:56:56.459Z,19.50
2018-03-11T08:58:01.594Z,19.50
2018-03-11T08:59:07.335Z,19.50
2018-03-11T09:00:12.391Z,19.50
2018-03-11T09:01:17.371Z,19.40
2018-03-11T09:02:22.391Z,19.40
2018-03-11T09:03:27.467Z,19.40
2018-03-11T09:04:32.531Z,19.40
2018-03-11T09:05:37.437Z,19.40
2018-03-11T09:06:42.429Z,19.40
2018-03-11T09:07:47.533Z,19.40
2018-03-11T09:08:53.258Z,19.40
2018-03-11T09:09:58.248Z,19.50
2018-03-11T09:11:03.287Z,19.40
2018-03-11T09:12:08.391Z,19.40
2018-03-11T09:13:13.427Z,19.40
2018-03-11T09:14:18.632Z,19.40
2018-03-11T09:15:23.795Z,19.50
2018-03-11T09:16:28.854Z,19.50
2018-03-11T09:17:33.986Z,19.40
2018-03-11T09:18:39.017Z,19.40
2018-03-11T09:19:44.073Z,19.40
2018-03-11T09:20:49.172Z,19.40
2018-03-11T09:21:55.062Z,19.40
2018-03-11T09:23:00.701Z,19.40
2018-03-11T09:24:06.266Z,19.40
2018-03-11T09:25:11.248Z,19.40
2018-03-11T09:26:16.368Z,19.40
2018-03-11T09:27:21.543Z,19.40
2018-03-11T09:28:26.589Z,19.40
2018-03-11T09:29:31.764Z,19.40
2018-03-11T09:30:37.778Z,19.40
2018-03-11T09:31:42.792Z,19.40
2018-03-11T09:32:48.023Z,19.40
2018-03-11T09:33:53.320Z,19.40
2018-03-11T09:34:58.370Z,19.40
2018-03-11T09:36:03.441Z,19.40
2018-03-11T09:37:09.231Z,19.40
2018-03-11T09:38:14.337Z,19.40
2018-03-11T09:39:19.920Z,19.50
2018-03-11T09:40:24.961Z,19.50
2018-03-11T09:41:30.137Z,19.50
2018-03-11T09:42:35.476Z,19.50
2018-03-11T09:43:40.561Z,19.50
2018-03-11T09:44:45.793Z,19.50
2018-03-11T09:45:51.005Z,19.50
2018-03-11T09:46:56.187Z,19.50
2018-03-11T09:48:01.741Z,19.50
2018-03-11T09:49:06.942Z,19.50
2018-03-11T09:50:12.676Z,19.50
2018-03-11T09:51:17.686Z,19.60
2018-03-11T09:52:22.756Z,19.60
2018-03-11T09:53:27.819Z,19.60
2018-03-11T09:54:32.875Z,19.60
2018-03-11T09:55:39.786Z,19.60
2018-03-11T09:56:44.897Z,19.50
2018-03-11T09:57:50.049Z,19.50
2018-03-11T09:58:55.170Z,19.50
2018-03-11T10:00:00.322Z,19.50
2018-03-11T10:01:05.386Z,19.50
2018-03-11T10:02:10.957Z,19.50
2018-03-11T10:03:15.921Z,19.50
2018-03-11T10:04:20.919Z,19.50
2018-03-11T10:05:25.917Z,19.50
2018-03-11T10:06:31.056Z,19.50
2018-03-11T10:07:36.066Z,19.50
2018-03-11T10:08:41.101Z,19.50
2018-03-11T10:09:46.331Z,19.60
2018-03-11T10:10:51.458Z,19.60
2018-03-11T10:11:57.622Z,19.60
2018-03-11T10:13:03.183Z,19.60
2018-03-11T10:14:08.280Z,19.60
2018-03-11T10:15:13.257Z,19.60
2018-03-11T10:16:18.412Z,19.60
2018-03-11T10:17:23.898Z,19.60
2018-03-11T10:18:28.969Z,19.60
2018-03-11T10:19:34.798Z,19.60
2018-03-11T10:20:42.045Z,19.60
2018-03-11T10:21:47.238Z,19.70
2018-03-11T10:22:52.577Z,19.70
2018-03-11T10:23:57.815Z,19.70
2018-03-11T10:25:02.942Z,19.60
2018-03-11T10:26:08.170Z,19.60
2018-03-11T10:27:13.280Z,19.60
2018-03-11T10:28:18.357Z,19.60
2018-03-11T10:29:23.590Z,19.60
2018-03-11T10:30:28.852Z,19.60
2018-03-11T10:31:33.908Z,19.60
2018-03-11T10:32:39.153Z,19.60
2018-03-11T10:33:44.826Z,19.60
2018-03-11T10:34:49.810Z,19.60
2018-03-11T10:35:54.988Z,19.60
2018-03-11T10:37:00.088Z,19.60
2018-03-11T10:38:05.016Z,19.60
2018-03-11T10:39:10.054Z,19.60
2018-03-11T10:40:15.303Z,19.60
2018-03-11T10:41:20.453Z,19.60
2018-03-11T10:42:25.627Z,19.70
2018-03-11T10:43:31.094Z,19.70
2018-03-11T10:44:36.096Z,19.70
2018-03-11T10:45:41.147Z,19.70
2018-03-11T10:46:47.372Z,19.70
2018-03-11T10:47:52.535Z,19.70
2018-03-11T10:48:57.630Z,19.70
2018-03-11T10:50:02.782Z,19.70
2018-03-11T10:51:09.098Z,19.80
2018-03-11T10:52:14.249Z,19.80
2018-03-11T10:53:19.414Z,19.80
2018-03-11T10:54:25.242Z,19.80
2018-03-11T10:55:30.281Z,19.80
2018-03-11T10:56:35.302Z,19.80
2018-03-11T10:57:40.316Z,19.90
2018-03-11T10:58:45.654Z,19.90
2018-03-11T10:59:50.786Z,19.90
2018-03-11T11:00:55.931Z,19.90
2018-03-11T11:02:01.168Z,19.90
2018-03-11T11:03:06.326Z,19.90
2018-03-11T11:04:12.022Z,19.90
2018-03-11T11:05:17.083Z,19.90
2018-03-11T11:06:22.202Z,19.90
2018-03-11T11:07:27.177Z,19.90
2018-03-11T11:08:32.312Z,19.90
2018-03-11T11:09:37.641Z,19.90
2018-03-11T11:10:43.600Z,19.90
2018-03-11T11:11:48.734Z,19.90
2018-03-11T11:12:53.914Z,20.00
2018-03-11T11:13:59.024Z,20.00
2018-03-11T11:15:04.110Z,20.00
2018-03-11T11:16:09.236Z,20.00
2018-03-11T11:17:14.353Z,20.00
2018-03-11T11:18:19.396Z,20.00
2018-03-11T11:19:25.050Z,19.90
2018-03-11T11:20:30.094Z,19.90
2018-03-11T11:21:35.272Z,19.90
2018-03-11T11:22:40.306Z,19.90
2018-03-11T11:23:45.546Z,19.90
2018-03-11T11:24:50.660Z,19.90
2018-03-11T11:25:55.733Z,19.90
2018-03-11T11:27:00.897Z,19.90
2018-03-11T11:28:06.127Z,19.90
2018-03-11T11:29:11.274Z,19.90
2018-03-11T11:30:16.439Z,19.90
2018-03-11T11:31:21.613Z,19.90
2018-03-11T11:32:26.723Z,19.90
2018-03-11T11:33:32.462Z,19.90
2018-03-11T11:34:37.591Z,19.90
2018-03-11T11:35:42.644Z,19.90
2018-03-11T11:36:47.830Z,19.90
2018-03-11T11:37:53.075Z,20.00
2018-03-11T11:38:58.200Z,20.00
2018-03-11T11:40:03.379Z,20.00
2018-03-11T11:41:08.511Z,19.90
2018-03-11T11:42:13.642Z,20.00
2018-03-11T11:43:18.841Z,19.90
2018-03-11T11:44:23.914Z,19.90
2018-03-11T11:45:29.256Z,19.90
2018-03-11T11:46:34.431Z,19.90
2018-03-11T11:47:39.422Z,19.90
2018-03-11T11:48:44.522Z,20.00
2018-03-11T11:49:49.538Z,20.00
2018-03-11T11:50:54.601Z,20.00
2018-03-11T11:51:59.811Z,20.00
2018-03-11T11:53:04.935Z,20.00
2018-03-11T11:54:10.743Z,20.00
2018-03-11T11:55:16.295Z,20.00
2018-03-11T11:56:21.510Z,20.00
2018-03-11T11:57:26.522Z,20.00
2018-03-11T11:58:31.546Z,20.00
2018-03-11T11:59:36.555Z,20.00
2018-03-11T12:00:41.796Z,20.00
2018-03-11T12:01:46.999Z,19.90
2018-03-11T12:02:51.979Z,19.90
2018-03-11T12:03:56.969Z,19.90
2018-03-11T12:05:02.036Z,19.90
2018-03-11T12:06:07.572Z,19.90
2018-03-11T12:07:12.600Z,19.90
2018-03-11T12:08:17.592Z,19.90
2018-03-11T12:09:22.666Z,19.90
2018-03-11T12:10:27.745Z,19.80
2018-03-11T12:11:32.833Z,19.80
2018-03-11T12:12:37.852Z,19.80
2018-03-11T12:13:42.925Z,19.80
2018-03-11T12:14:48.086Z,19.80
2018-03-11T12:15:53.165Z,19.80
2018-03-11T12:16:58.278Z,19.80
2018-03-11T12:18:03.292Z,19.80
2018-03-11T12:19:08.337Z,19.80
2018-03-11T12:20:13.362Z,19.80
2018-03-11T12:21:18.532Z,19.80
2018-03-11T12:22:24.206Z,19.80
2018-03-11T12:23:29.916Z,19.80
2018-03-11T12:24:34.838Z,19.80
2018-03-11T12:25:39.992Z,19.80
2018-03-11T12:26:45.073Z,19.80
2018-03-11T12:27:50.870Z,19.80
2018-03-11T12:28:56.002Z,19.80
2018-03-11T12:30:00.925Z,19.80
2018-03-11T12:31:05.958Z,19.80
2018-03-11T12:32:11.658Z,19.80
2018-03-11T12:33:16.687Z,19.80
2018-03-11T12:34:21.870Z,19.80
2018-03-11T12:35:26.921Z,19.80
2018-03-11T12:36:31.899Z,19.80
2018-03-11T12:37:37.020Z,19.80
2018-03-11T12:38:42.085Z,19.80
2018-03-11T12:39:47.089Z,19.80
2018-03-11T12:40:52.115Z,19.80
2018-03-11T12:41:57.243Z,19.80
2018-03-11T12:43:02.349Z,19.80
2018-03-11T12:44:07.238Z,19.80
2018-03-11T12:45:12.284Z,19.80
2018-03-11T12:46:17.316Z,19.80
2018-03-11T12:47:22.508Z,19.80
2018-03-11T12:48:27.467Z,19.80
2018-03-11T12:49:32.988Z,19.80
2018-03-11T12:50:38.164Z,19.80
2018-03-11T12:51:43.083Z,19.80
2018-03-11T12:52:48.018Z,19.80
2018-03-11T12:53:52.989Z,19.80
2018-03-11T12:54:57.910Z,19.80
2018-03-11T12:56:03.070Z,19.80
2018-03-11T12:57:08.036Z,19.80
2018-03-11T12:58:13.318Z,19.80
2018-03-11T12:59:18.703Z,19.80
2018-03-11T13:00:23.886Z,19.80
2018-03-11T13:01:28.764Z,19.80
2018-03-11T13:02:33.668Z,19.80
2018-03-11T13:03:38.536Z,19.80
2018-03-11T13:04:43.472Z,19.80
2018-03-11T13:05:48.446Z,19.80
2018-03-11T13:06:53.460Z,19.80
2018-03-11T13:07:58.383Z,19.80
2018-03-11T13:09:03.786Z,19.80
2018-03-11T13:10:08.771Z,19.80
2018-03-11T13:11:13.756Z,19.80
2018-03-11T13:12:18.840Z,19.80
2018-03-11T13:13:23.807Z,19.80
2018-03-11T13:14:28.932Z,19.80
2018-03-11T13:15:34.037Z,19.80
2018-03-11T13:16:39.089Z,19.80
2018-03-11T13:17:44.055Z,19.80
2018-03-11T13:18:49.225Z,19.80
2018-03-11T13:19:54.363Z,19.80
2018-03-11T13:20:59.452Z,19.90
2018-03-11T13:22:04.698Z,19.90
2018-03-11T13:23:09.925Z,19.80
2018-03-11T13:24:15.185Z,19.80
2018-03-11T13:25:20.286Z,19.80
2018-03-11T13:26:25.341Z,19.90
2018-03-11T13:27:30.479Z,19.90
2018-03-11T13:28:35.484Z,19.90
2018-03-11T13:29:40.637Z,19.90
2018-03-11T13:30:45.716Z,19.90
2018-03-11T13:31:50.785Z,19.90
2018-03-11T13:32:56.128Z,19.90
2018-03-11T13:34:01.190Z,19.90
2018-03-11T13:35:06.371Z,19.90
2018-03-11T13:36:11.622Z,19.90
2018-03-11T13:37:16.663Z,19.90
2018-03-11T13:38:21.759Z,19.90
2018-03-11T13:39:26.886Z,19.90
2018-03-11T13:40:31.941Z,19.90
2018-03-11T13:41:37.109Z,19.90
2018-03-11T13:42:42.149Z,19.90
2018-03-11T13:43:47.301Z,20.00
2018-03-11T13:44:52.446Z,19.90
2018-03-11T13:45:57.563Z,19.90
2018-03-11T13:47:02.615Z,19.90
2018-03-11T13:48:07.763Z,19.90
2018-03-11T13:49:12.753Z,19.90
2018-03-11T13:50:18.518Z,19.90
2018-03-11T13:51:23.716Z,19.90
2018-03-11T13:52:28.704Z,20.00
2018-03-11T13:53:34.539Z,20.00
2018-03-11T13:54:39.640Z,20.00
2018-03-11T13:55:45.264Z,20.00
2018-03-11T13:56:50.208Z,20.00
2018-03-11T13:57:55.940Z,20.00
2018-03-11T13:59:00.933Z,20.10
2018-03-11T14:00:06.105Z,20.00